Time;durP1;ratioP1;P1;durP2;ratioP2;P2;SDS_P1;SDS_P2;PMS_P1;PMS_P2;Temp;Humidity;BMP_temperature;BMP_pressure;BME280_temperature;BME280_humidity;BME280_pressure;Samples;Min_cycle;Max_cycle;Signal;HPM_P1;HPM_P2
2023/01/09 00:01:37;;;;;;;1.35;1.25;;;;;;;-17.90;82.35;100836.00;4918124;29;20051;-82
2023/01/09 00:04:05;;;;;;;1.30;1.20;;;;;;;-17.90;82.37;100836.84;4934970;29;20142;-83
2023/01/09 00:06:34;;;;;;;1.60;1.50;;;;;;;-17.95;82.48;100847.25;4917750;29;20078;-85
2023/01/09 00:09:02;;;;;;;1.10;1.10;;;;;;;-18.07;82.26;100828.50;4934797;29;20051;-84
2023/01/09 00:11:29;;;;;;;1.40;1.30;;;;;;;-18.05;82.44;100832.78;4934652;29;20059;-84
2023/01/09 00:13:56;;;;;;;1.38;1.27;;;;;;;-18.03;82.72;100835.31;4918003;29;20146;-84
2023/01/09 00:16:27;;;;;;;1.40;1.30;;;;;;;-18.06;82.50;100836.19;4935311;29;20159;-84
2023/01/09 00:18:54;;;;;;;1.25;1.20;;;;;;;-18.06;82.59;100837.94;4937073;29;20618;-83
2023/01/09 00:21:21;;;;;;;1.10;1.10;;;;;;;-18.09;82.43;100841.41;4917993;29;20059;-85
2023/01/09 00:23:48;;;;;;;1.20;1.20;;;;;;;-18.12;82.47;100841.44;4918104;29;20146;-82
2023/01/09 00:26:22;;;;;;;1.33;1.23;;;;;;;-18.17;82.44;100841.50;4916803;29;20067;-84
2023/01/09 00:28:50;;;;;;;1.08;1.08;;;;;;;-18.19;82.47;100847.53;4934122;29;20048;-84
2023/01/09 00:31:17;;;;;;;1.35;1.25;;;;;;;-18.23;82.53;100840.72;4934728;29;20103;-84
2023/01/09 00:34:06;;;;;;;1.35;1.25;;;;;;;-18.24;82.65;100839.00;4933449;29;20052;-83
2023/01/09 00:36:33;;;;;;;1.33;1.23;;;;;;;-18.28;82.59;100845.06;4901943;29;20060;-83
2023/01/09 00:39:00;;;;;;;1.40;1.30;;;;;;;-18.36;82.49;100843.41;4934567;29;20050;-83
2023/01/09 00:41:34;;;;;;;1.10;1.10;;;;;;;-18.41;82.52;100840.03;4933794;29;20790;-83
2023/01/09 00:44:09;;;;;;;1.55;1.45;;;;;;;-18.41;82.65;100841.78;4934297;29;20451;-84
2023/01/09 00:46:38;;;;;;;1.25;1.20;;;;;;;-18.43;82.64;100825.47;4917041;29;20153;-84
2023/01/09 00:49:06;;;;;;;1.48;1.38;;;;;;;-18.33;82.73;100833.97;4900926;29;20047;-83
2023/01/09 00:51:33;;;;;;;1.40;1.30;;;;;;;-18.32;82.62;100833.09;4933731;29;20528;-83
2023/01/09 00:54:01;;;;;;;1.35;1.25;;;;;;;-18.35;82.46;100826.25;4933795;29;20051;-83
2023/01/09 00:56:28;;;;;;;1.20;1.20;;;;;;;-18.43;82.40;100831.50;4901100;29;20048;-84
2023/01/09 00:58:56;;;;;;;1.33;1.23;;;;;;;-18.45;82.38;100832.41;4916724;29;20058;-83
2023/01/09 01:01:23;;;;;;;1.40;1.30;;;;;;;-18.46;82.75;100828.94;4933576;29;20050;-84
2023/01/09 01:03:50;;;;;;;1.40;1.30;;;;;;;-18.45;82.65;100828.09;4933682;29;20119;-82
2023/01/09 01:09:03;;;;;;;1.40;1.30;;;;;;;-18.50;82.69;100831.59;4933866;29;20047;-85
2023/01/09 01:11:33;;;;;;;1.33;1.23;;;;;;;-18.54;82.61;100833.34;4934181;29;20079;-83
2023/01/09 01:14:00;;;;;;;1.40;1.30;;;;;;;-18.61;82.80;100831.69;4916997;29;20055;-84
2023/01/09 01:16:27;;;;;;;1.20;1.20;;;;;;;-18.72;82.98;100823.22;4935951;29;20543;-82
2023/01/09 01:18:54;;;;;;;1.50;1.40;;;;;;;-18.70;82.89;100822.34;4918924;29;20691;-84
2023/01/09 01:21:24;;;;;;;1.70;1.60;;;;;;;-18.69;83.08;100830.94;4935502;29;20062;-83
2023/01/09 01:23:54;;;;;;;1.23;1.20;;;;;;;-18.78;82.84;100825.88;4917267;29;20079;-82
2023/01/09 01:26:21;;;;;;;1.40;1.30;;;;;;;-18.83;83.16;100833.69;4916569;29;20078;-84
2023/01/09 01:28:50;;;;;;;1.50;1.40;;;;;;;-18.83;83.28;100831.97;4933597;29;20048;-83
2023/01/09 01:31:18;;;;;;;1.40;1.30;;;;;;;-18.92;83.28;100831.19;4916588;29;20051;-84
2023/01/09 01:33:45;;;;;;;1.38;1.27;;;;;;;-18.99;83.10;100834.69;4933153;29;20052;-82
2023/01/09 01:36:15;;;;;;;1.50;1.40;;;;;;;-19.04;83.43;100837.28;4934391;29;20086;-83
2023/01/09 01:38:43;;;;;;;1.40;1.30;;;;;;;-19.11;83.34;100839.09;4946862;29;20063;-83
2023/01/09 01:41:10;;;;;;;1.58;1.48;;;;;;;-19.16;83.47;100843.41;4941862;29;20083;-84
2023/01/09 01:43:52;;;;;;;1.30;1.20;;;;;;;-19.24;83.62;100843.47;4932547;29;20047;-83
2023/01/09 01:46:19;;;;;;;1.27;1.20;;;;;;;-19.25;83.67;100843.47;4932918;29;20059;-83
2023/01/09 01:48:54;;;;;;;1.55;1.45;;;;;;;-19.26;83.66;100847.78;4932931;29;20087;-83
2023/01/09 01:51:26;;;;;;;1.50;1.40;;;;;;;-19.23;83.51;100849.47;4932896;29;20052;-82
2023/01/09 01:53:57;;;;;;;1.40;1.30;;;;;;;-19.19;83.66;100842.56;4916001;29;20075;-84
2023/01/09 01:56:32;;;;;;;1.42;1.33;;;;;;;-19.21;83.54;100842.59;4916086;29;20131;-84
2023/01/09 01:59:19;;;;;;;1.30;1.20;;;;;;;-19.22;83.38;100843.44;4931932;29;20059;-83
2023/01/09 02:01:49;;;;;;;1.60;1.50;;;;;;;-19.27;83.41;100853.78;4915519;29;20052;-82
2023/01/09 02:04:16;;;;;;;1.50;1.40;;;;;;;-19.25;83.34;100862.34;4915581;29;20108;-84
2023/01/09 02:06:45;;;;;;;1.48;1.38;;;;;;;-19.19;83.21;100860.59;4915327;29;20054;-83
2023/01/09 02:09:14;;;;;;;1.30;1.20;;;;;;;-19.14;83.21;100857.09;4915584;29;20146;-84
2023/01/09 02:11:45;;;;;;;1.20;1.20;;;;;;;-19.07;83.00;100847.63;4915539;29;20174;-84
2023/01/09 02:14:15;;;;;;;1.40;1.30;;;;;;;-19.01;83.05;100847.59;4930625;29;20048;-83
2023/01/09 02:16:46;;;;;;;1.50;1.40;;;;;;;-18.94;82.73;100848.38;4916073;29;20063;-84
2023/01/09 02:19:20;;;;;;;1.55;1.45;;;;;;;-18.83;82.44;100842.25;4900805;29;20529;-83
2023/01/09 02:22:08;;;;;;;1.40;1.30;;;;;;;-18.75;82.46;100839.59;4933168;29;20514;-84
2023/01/09 02:24:59;;;;;;;1.50;1.40;;;;;;;-18.70;81.99;100844.69;4925585;29;20425;-84
2023/01/09 02:27:29;;;;;;;1.50;1.40;;;;;;;-18.76;81.53;100837.03;4932764;29;20086;-82
2023/01/09 02:30:28;;;;;;;1.27;1.20;;;;;;;-18.77;81.21;100837.91;4931262;29;20570;-82
2023/01/09 02:32:55;;;;;;;1.40;1.30;;;;;;;-18.77;80.91;100837.91;4915521;29;20047;-83
2023/01/09 02:35:41;;;;;;;1.30;1.20;;;;;;;-18.76;80.93;100844.75;4932726;29;20138;-84
2023/01/09 02:38:46;;;;;;;1.40;1.30;;;;;;;-18.72;80.71;100852.41;4932568;29;20067;-83
2023/01/09 02:41:24;;;;;;;1.40;1.30;;;;;;;-18.71;80.43;100842.97;4927220;29;20059;-83
2023/01/09 02:44:21;;;;;;;1.73;1.63;;;;;;;-18.71;80.47;100848.94;4924744;29;20138;-84
2023/01/09 02:47:14;;;;;;;1.30;1.20;;;;;;;-18.67;80.50;100852.38;4945928;29;20113;-83
2023/01/09 02:49:54;;;;;;;1.38;1.27;;;;;;;-18.61;80.43;100862.59;4929363;29;20064;-82
2023/01/09 02:52:33;;;;;;;1.10;1.10;;;;;;;-18.56;80.33;100858.25;4952038;29;20658;-84
2023/01/09 02:55:08;;;;;;;1.40;1.30;;;;;;;-18.55;80.42;100869.44;4935035;29;20085;-83
2023/01/09 02:57:41;;;;;;;1.35;1.25;;;;;;;-18.57;80.48;100872.00;4937984;29;20146;-84
2023/01/09 03:00:21;;;;;;;1.40;1.30;;;;;;;-18.52;80.45;100872.81;4970498;29;20039;-86
2023/01/09 03:02:49;;;;;;;1.30;1.20;;;;;;;-18.50;80.44;100865.09;4947972;29;20079;-87
2023/01/09 03:05:20;;;;;;;1.40;1.30;;;;;;;-18.49;80.31;100869.34;4952158;29;20111;-85
2023/01/09 03:08:06;;;;;;;1.35;1.25;;;;;;;-18.51;80.31;100855.63;4964692;29;20074;-88
2023/01/09 03:10:35;;;;;;;1.60;1.50;;;;;;;-18.47;80.35;100865.91;4920663;29;20046;-87
2023/01/09 03:13:08;;;;;;;1.40;1.30;;;;;;;-18.49;80.13;100869.34;4936104;29;20047;-88
2023/01/09 03:15:38;;;;;;;1.65;1.55;;;;;;;-18.48;80.08;100873.63;4936668;29;20078;-85
2023/01/09 03:18:06;;;;;;;1.48;1.38;;;;;;;-18.48;80.25;100879.66;4919401;29;20102;-85
2023/01/09 03:20:34;;;;;;;1.50;1.40;;;;;;;-18.48;80.42;100879.66;4936075;29;20111;-86
2023/01/09 03:23:05;;;;;;;1.40;1.30;;;;;;;-18.43;80.32;100883.03;4919083;29;20048;-87
2023/01/09 03:25:32;;;;;;;1.40;1.30;;;;;;;-18.41;80.20;100872.69;4935827;29;20066;-85
2023/01/09 03:28:05;;;;;;;1.40;1.30;;;;;;;-18.41;80.19;100875.28;4936062;29;20056;-87
2023/01/09 03:30:36;;;;;;;1.55;1.45;;;;;;;-18.40;80.10;100883.00;4903648;29;20079;-87
2023/01/09 03:33:28;;;;;;;1.27;1.20;;;;;;;-18.41;80.09;100883.84;4930552;29;20043;-86
2023/01/09 03:35:55;;;;;;;1.60;1.50;;;;;;;-18.42;79.88;100891.63;4941658;29;20028;-87
2023/01/09 03:38:22;;;;;;;1.40;1.30;;;;;;;-18.43;79.90;100884.75;4957616;29;20035;-84
2023/01/09 03:40:50;;;;;;;1.10;1.10;;;;;;;-18.48;79.72;100889.09;4955513;29;20150;-85
2023/01/09 03:43:17;;;;;;;1.30;1.23;;;;;;;-18.48;79.90;100886.50;4956259;29;20051;-84
2023/01/09 03:45:44;;;;;;;1.10;1.10;;;;;;;-18.49;79.76;100887.38;4953332;29;20059;-87
2023/01/09 03:48:11;;;;;;;1.40;1.30;;;;;;;-18.54;79.62;100884.84;4950721;29;20048;-84
2023/01/09 03:50:41;;;;;;;1.10;1.10;;;;;;;-18.60;79.63;100890.09;4955053;29;20059;-86
2023/01/09 03:53:08;;;;;;;1.27;1.20;;;;;;;-18.69;79.60;100890.16;4971062;29;20055;-85
2023/01/09 03:55:35;;;;;;;1.40;1.30;;;;;;;-18.75;79.59;100898.00;4939718;29;20056;-87
2023/01/09 03:58:05;;;;;;;1.20;1.20;;;;;;;-18.80;79.41;100893.72;4953615;29;20078;-86
2023/01/09 04:00:32;;;;;;;1.30;1.20;;;;;;;-18.78;79.60;100905.72;4956704;29;20070;-86
2023/01/09 04:02:59;;;;;;;1.48;1.38;;;;;;;-18.75;79.57;100901.41;4955576;29;20055;-86
2023/01/09 04:05:29;;;;;;;1.10;1.10;;;;;;;-18.70;79.63;100899.63;4926072;29;20067;-87
2023/01/09 04:07:56;;;;;;;1.40;1.30;;;;;;;-18.68;79.50;100904.72;4936618;29;20548;-86
2023/01/09 04:10:24;;;;;;;1.40;1.30;;;;;;;-18.74;79.27;100897.06;4937953;29;20112;-86
2023/01/09 04:12:51;;;;;;;1.23;1.20;;;;;;;-18.80;79.08;100898.03;4932923;29;20205;-85
2023/01/09 04:15:18;;;;;;;1.40;1.30;;;;;;;-18.80;78.99;100904.03;4903863;29;20111;-85
2023/01/09 04:17:45;;;;;;;1.42;1.33;;;;;;;-18.78;78.96;100910.88;4909254;29;20519;-86
2023/01/09 04:20:12;;;;;;;1.30;1.23;;;;;;;-18.88;78.61;100899.81;4928017;29;20039;-87
2023/01/09 04:22:45;;;;;;;1.10;1.10;;;;;;;-18.93;78.57;100906.72;4899749;29;20142;-86
2023/01/09 04:25:12;;;;;;;1.33;1.23;;;;;;;-18.95;78.37;100916.19;4929091;29;20059;-89
2023/01/09 04:27:39;;;;;;;1.42;1.33;;;;;;;-18.92;78.46;100914.41;4923511;29;20052;-88
2023/01/09 04:30:07;;;;;;;1.50;1.40;;;;;;;-18.89;78.43;100914.38;4936936;29;20054;-90
2023/01/09 04:32:35;;;;;;;1.30;1.25;;;;;;;-18.85;78.38;100916.09;4927079;29;20071;-87
2023/01/09 04:35:02;;;;;;;1.30;1.20;;;;;;;-18.83;78.54;100921.22;4931827;29;20438;-83
2023/01/09 04:37:29;;;;;;;1.48;1.38;;;;;;;-18.79;78.40;100920.31;4930661;29;20110;-87
2023/01/09 04:39:56;;;;;;;1.40;1.30;;;;;;;-18.77;78.13;100920.31;4900697;29;20185;-86
2023/01/09 04:42:24;;;;;;;1.60;1.50;;;;;;;-18.80;78.21;100911.75;4916916;29;20044;-87
2023/01/09 04:44:52;;;;;;;1.40;1.30;;;;;;;-18.68;78.25;100925.34;4916407;29;20048;-87
2023/01/09 04:47:20;;;;;;;1.23;1.20;;;;;;;-18.67;78.10;100927.06;4913642;29;20055;-82
2023/01/09 04:49:59;;;;;;;1.40;1.30;;;;;;;-18.59;77.72;100933.00;4915001;29;20079;-89
2023/01/09 04:52:26;;;;;;;1.40;1.30;;;;;;;-18.72;77.67;100915.94;4914088;29;20170;-93
2023/01/09 04:54:55;;;;;;;1.33;1.23;;;;;;;-18.72;77.79;100924.53;4895731;29;20063;-89
2023/01/09 04:57:25;;;;;;;1.30;1.20;;;;;;;-18.81;77.61;100920.34;4919941;29;20059;-93
2023/01/09 04:59:54;;;;;;;1.40;1.30;;;;;;;-18.73;77.65;100933.13;4900197;29;20055;-91
2023/01/09 05:02:23;;;;;;;1.50;1.40;;;;;;;-18.77;77.78;100928.03;4913174;29;20116;-93
2023/01/09 05:04:51;;;;;;;1.38;1.27;;;;;;;-18.73;77.94;100947.69;4915820;29;20051;-90
2023/01/09 05:07:18;;;;;;;1.40;1.30;;;;;;;-18.71;77.96;100951.97;4918025;29;20064;-89
2023/01/09 05:09:48;;;;;;;1.38;1.27;;;;;;;-18.61;78.30;100945.03;4920900;29;20066;-90
2023/01/09 05:16:47;;;;;;;1.40;1.30;;;;;;;-18.69;78.25;100942.50;4930961;29;20107;-89
2023/01/09 05:19:19;;;;;;;1.35;1.25;;;;;;;-18.63;78.22;100941.59;4947638;29;20035;-85
2023/01/09 05:21:47;;;;;;;1.30;1.20;;;;;;;-18.66;78.36;100945.06;4598841;28;10000755;-88
2023/01/09 05:24:16;;;;;;;1.10;1.10;;;;;;;-18.68;78.52;100949.41;4942866;29;20874;-87
2023/01/09 05:26:43;;;;;;;1.30;1.20;;;;;;;-18.70;78.50;100940.81;4881244;29;20056;-87
2023/01/09 05:29:24;;;;;;;1.42;1.33;;;;;;;-18.75;78.56;100941.75;4930972;29;20051;-90
2023/01/09 05:31:54;;;;;;;1.30;1.20;;;;;;;-18.72;78.60;100939.97;4901168;29;20066;-91
2023/01/09 05:34:24;;;;;;;1.40;1.30;;;;;;;-18.77;78.69;100958.94;4899667;29;20095;-89
2023/01/09 05:36:52;;;;;;;1.60;1.50;;;;;;;-18.85;78.44;100957.28;4915212;29;20082;-88
2023/01/09 05:39:22;;;;;;;1.27;1.20;;;;;;;-18.85;78.80;100962.44;4920911;29;20048;-94
2023/01/09 05:41:53;;;;;;;1.60;1.50;;;;;;;-18.89;78.83;100963.31;4916511;29;20186;-90
2023/01/09 05:44:20;;;;;;;1.20;1.20;;;;;;;-18.88;78.58;100964.19;4930222;29;20078;-86
2023/01/09 05:46:51;;;;;;;1.50;1.40;;;;;;;-18.91;78.77;100965.06;4899217;29;20150;-89
2023/01/09 05:49:20;;;;;;;1.40;1.30;;;;;;;-18.90;78.80;100979.63;4883898;29;20048;-88
2023/01/09 05:51:48;;;;;;;1.40;1.30;;;;;;;-18.88;78.74;100977.06;4906967;29;20142;-90
2023/01/09 05:54:17;;;;;;;1.40;1.30;;;;;;;-18.93;78.83;100978.81;4932396;29;20051;-87
2023/01/09 05:56:51;;;;;;;1.40;1.30;;;;;;;-18.90;78.88;100978.78;4907785;29;20409;-90
2023/01/09 05:59:19;;;;;;;1.30;1.20;;;;;;;-18.89;78.91;100960.72;4918847;29;20068;-92
2023/01/09 06:01:47;;;;;;;1.35;1.25;;;;;;;-18.87;79.10;100977.03;4923283;29;20052;-91
2023/01/09 06:04:15;;;;;;;1.48;1.38;;;;;;;-18.96;78.94;100969.38;4901121;29;20048;-90
2023/01/09 06:06:46;;;;;;;1.60;1.50;;;;;;;-18.90;79.05;100978.78;4926176;29;20071;-91
2023/01/09 06:09:13;;;;;;;1.40;1.30;;;;;;;-18.94;79.16;100979.66;4937719;29;20056;-92
2023/01/09 06:11:41;;;;;;;1.60;1.50;;;;;;;-18.95;79.22;100988.25;4885520;29;20044;-89
2023/01/09 06:14:09;;;;;;;1.60;1.50;;;;;;;-18.91;79.51;100992.50;4888531;29;20122;-93
2023/01/09 06:16:39;;;;;;;1.50;1.40;;;;;;;-18.83;79.41;101001.06;4892221;29;20047;-86
2023/01/09 06:19:06;;;;;;;1.40;1.30;;;;;;;-18.82;79.17;101003.59;4921472;29;20143;-89
2023/01/09 06:21:34;;;;;;;1.40;1.30;;;;;;;-18.95;79.43;101007.13;4930814;29;20062;-90
2023/01/09 06:24:01;;;;;;;1.50;1.40;;;;;;;-19.01;79.66;101002.03;4931502;29;20532;-84
2023/01/09 06:26:28;;;;;;;1.40;1.30;;;;;;;-19.00;79.88;101010.59;4930230;29;20064;-87
2023/01/09 06:28:56;;;;;;;1.70;1.60;;;;;;;-18.95;80.09;101006.28;4913552;29;20074;-91
2023/01/09 06:31:37;;;;;;;1.50;1.40;;;;;;;-18.99;80.08;101009.72;4937939;29;20462;-92
2023/01/09 06:34:04;;;;;;;1.52;1.42;;;;;;;-18.98;80.10;101002.00;4936245;29;20052;-92
2023/01/09 06:36:31;;;;;;;1.40;1.30;;;;;;;-18.89;80.50;101007.06;4927212;29;20052;-92
2023/01/09 06:38:59;;;;;;;1.42;1.33;;;;;;;-18.86;80.44;101009.66;4922799;29;20199;-93
2023/01/09 06:41:37;;;;;;;1.50;1.40;;;;;;;-18.80;80.30;101009.59;4911922;29;20051;-91
2023/01/09 06:44:08;;;;;;;1.30;1.20;;;;;;;-18.78;80.48;101016.44;4899831;29;20236;-93
2023/01/09 06:46:56;;;;;;;1.55;1.45;;;;;;;-18.85;80.07;101026.81;4865416;29;20057;-86
2023/01/09 06:49:24;;;;;;;1.42;1.33;;;;;;;-18.93;79.94;101013.13;4877854;29;20448;-91
2023/01/09 06:51:51;;;;;;;1.60;1.50;;;;;;;-18.85;80.31;101018.22;4885161;29;20053;-90
2023/01/09 06:54:20;;;;;;;1.50;1.40;;;;;;;-18.83;79.91;101012.19;4890083;29;20218;-93
2023/01/09 06:56:50;;;;;;;1.40;1.30;;;;;;;-18.72;79.75;101019.81;4901667;29;20751;-89
2023/01/09 06:59:21;;;;;;;;;;;;;;;-18.57;79.92;101024.84;4885873;29;20049;-91
2023/01/09 07:01:51;;;;;;;1.50;1.40;;;;;;;-18.51;79.41;101018.78;4879975;29;19927;-92
2023/01/09 07:04:21;;;;;;;1.50;1.40;;;;;;;-18.54;79.12;101016.25;4885523;29;20154;-93
2023/01/09 07:07:03;;;;;;;1.40;1.30;;;;;;;-18.44;78.70;101029.91;4866965;29;20451;-92
2023/01/09 07:09:35;;;;;;;1.50;1.40;;;;;;;-18.39;78.81;101018.69;4881189;29;20053;-89
2023/01/09 07:12:03;;;;;;;1.52;1.42;;;;;;;-18.28;78.34;101020.31;4881501;29;20509;-91
2023/01/09 07:14:30;;;;;;;1.40;1.30;;;;;;;-18.28;77.89;101028.88;4883111;29;20193;-93
2023/01/09 07:17:02;;;;;;;1.42;1.33;;;;;;;-18.17;77.82;101028.81;4895277;29;20087;-92
2023/01/09 07:19:30;;;;;;;1.40;1.30;;;;;;;-18.13;77.34;101030.47;4912254;29;20068;-94
2023/01/09 07:22:09;;;;;;;1.55;1.45;;;;;;;-17.94;77.25;101028.59;4905722;29;20067;-92
2023/01/09 07:24:36;;;;;;;1.50;1.40;;;;;;;-17.81;77.03;101026.75;4905540;29;20102;-90
2023/01/09 07:27:04;;;;;;;1.50;1.40;;;;;;;-17.73;76.66;101014.56;4935665;29;20055;-93
2023/01/09 07:29:31;;;;;;;1.30;1.20;;;;;;;-17.63;75.87;101016.19;4894862;29;20054;-89
2023/01/09 07:31:58;;;;;;;1.50;1.40;;;;;;;-17.39;75.63;101020.22;4927187;29;20629;-89
2023/01/09 07:34:26;;;;;;;1.50;1.40;;;;;;;-17.19;74.95;101022.50;4928305;29;20044;-89
2023/01/09 07:36:53;;;;;;;1.40;1.30;;;;;;;-17.11;74.10;101025.88;4929723;29;20051;-90
2023/01/09 07:39:27;;;;;;;1.52;1.42;;;;;;;-17.11;74.07;101031.03;4891637;29;20052;-91
2023/01/09 07:41:55;;;;;;;1.45;1.35;;;;;;;-16.85;73.07;101028.06;4889656;29;20052;-93
2023/01/09 07:44:24;;;;;;;1.60;1.50;;;;;;;-16.71;72.81;101029.56;4900028;29;20054;-91
2023/01/09 07:46:52;;;;;;;1.60;1.50;;;;;;;-16.64;72.13;101032.03;4906934;29;20560;-91
2023/01/09 07:49:19;;;;;;;1.40;1.30;;;;;;;-16.53;71.59;101031.00;4920700;29;20056;-90
2023/01/09 07:51:47;;;;;;;1.55;1.45;;;;;;;-16.72;70.99;101038.19;4913692;29;20086;-93
2023/01/09 07:54:16;;;;;;;1.60;1.50;;;;;;;-16.89;70.91;101030.72;4889247;29;20052;-88
2023/01/09 07:56:44;;;;;;;1.90;1.80;;;;;;;-16.69;70.36;101036.41;4902189;29;20075;-89
2023/01/09 07:59:14;;;;;;;1.50;1.40;;;;;;;-16.56;69.58;101037.06;4924321;29;20561;-88
2023/01/09 08:01:41;;;;;;;1.50;1.40;;;;;;;-16.43;69.29;101033.44;4939326;29;20067;-93
2023/01/09 08:04:08;;;;;;;1.60;1.50;;;;;;;-16.13;69.23;101040.72;4929359;29;20070;-91
2023/01/09 08:06:35;;;;;;;1.70;1.60;;;;;;;-15.92;68.64;101036.88;4920376;28;20036;-88
2023/01/09 08:09:03;;;;;;;1.60;1.50;;;;;;;-15.82;67.89;101046.19;4926367;29;20027;-89
2023/01/09 08:11:31;;;;;;;1.60;1.50;;;;;;;-15.48;67.41;101037.78;4926062;29;20032;-88
2023/01/09 08:13:58;;;;;;;1.63;1.52;;;;;;;-15.34;67.22;101046.09;4895793;29;20055;-89
2023/01/09 08:16:25;;;;;;;1.55;1.45;;;;;;;-15.31;66.17;101041.72;4928098;29;20055;-91
2023/01/09 08:18:53;;;;;;;1.40;1.30;;;;;;;-15.23;66.09;101043.31;4923095;29;20043;-89
2023/01/09 08:21:20;;;;;;;1.80;1.70;;;;;;;-15.18;65.78;101029.38;4941578;29;20047;-88
2023/01/09 08:23:55;;;;;;;1.42;1.33;;;;;;;-14.83;64.78;101029.47;4937438;29;20143;-87
2023/01/09 08:26:25;;;;;;;1.70;1.60;;;;;;;-14.60;64.30;101009.09;4926437;29;20126;-92
2023/01/09 08:28:53;;;;;;;1.48;1.38;;;;;;;-14.50;63.54;101007.09;4923257;29;20067;-91
2023/01/09 08:31:20;;;;;;;1.80;1.70;;;;;;;-14.26;63.26;101003.03;4919332;29;20055;-90
2023/01/09 08:33:48;;;;;;;1.75;1.65;;;;;;;-14.11;62.63;101043.31;4930954;29;20048;-89
2023/01/09 08:36:17;;;;;;;1.85;1.75;;;;;;;-13.99;62.20;101028.28;4888634;29;20048;-89
2023/01/09 08:38:47;;;;;;;1.60;1.50;;;;;;;-13.63;61.99;101015.22;4893496;29;20052;-90
2023/01/09 08:47:05;;;;;;;1.63;1.52;;;;;;;-13.04;60.53;101027.38;4915510;29;20423;-89
2023/01/09 08:49:33;;;;;;;1.40;1.30;;;;;;;-12.73;59.89;101022.13;4918099;29;20050;-91
2023/01/09 08:52:01;;;;;;;1.67;1.58;;;;;;;-12.39;59.34;101017.59;4904765;29;20149;-91
2023/01/09 08:54:28;;;;;;;1.80;1.70;;;;;;;-11.82;58.83;101008.72;4914569;29;20062;-89
2023/01/09 08:56:57;;;;;;;1.95;1.85;;;;;;;-11.42;58.12;101026.41;4904228;29;20056;-88
2023/01/09 08:59:24;;;;;;;2.20;2.00;;;;;;;-11.41;57.10;101017.66;4926781;29;20059;-91
2023/01/09 09:01:55;;;;;;;1.80;1.70;;;;;;;-11.49;56.44;101024.03;4918081;29;20146;-87
2023/01/09 09:04:22;;;;;;;1.75;1.65;;;;;;;-11.32;55.86;101024.28;4888937;29;20074;-89
2023/01/09 09:06:50;;;;;;;2.08;1.95;;;;;;;-11.03;54.98;101025.81;4907078;29;20056;-90
2023/01/09 09:09:18;;;;;;;1.88;1.77;;;;;;;-11.04;54.33;101018.03;4923656;29;20051;-93
2023/01/09 09:11:45;;;;;;;1.95;1.85;;;;;;;-11.19;54.06;101020.34;4909287;29;20115;-90
2023/01/09 09:17:00;;;;;;;2.08;1.92;;;;;;;-10.71;54.09;101008.94;4915850;29;20051;-88
2023/01/09 09:19:29;;;;;;;1.90;1.80;;;;;;;-10.55;53.27;101006.56;4960657;29;20114;-92
2023/01/09 09:21:58;;;;;;;1.80;1.70;;;;;;;-10.36;52.63;101003.22;4925465;29;20426;-87
2023/01/09 09:24:26;;;;;;;2.00;1.90;;;;;;;-10.49;52.46;100998.47;4941808;29;20051;-86
2023/01/09 09:26:53;;;;;;;1.58;1.48;;;;;;;-10.56;52.13;101002.25;4936692;29;20083;-91
2023/01/09 09:29:32;;;;;;;1.70;1.60;;;;;;;-10.26;52.03;101007.13;4925313;29;20048;-93
2023/01/09 09:31:59;;;;;;;2.20;2.00;;;;;;;-10.14;51.65;101009.22;4911776;29;20079;-93
2023/01/09 09:34:27;;;;;;;1.85;1.75;;;;;;;-9.91;51.27;101010.03;4908859;29;20127;-91
2023/01/09 09:36:55;;;;;;;1.65;1.55;;;;;;;-9.97;50.54;101012.91;4925184;29;20158;-94
2023/01/09 09:39:32;;;;;;;2.00;1.90;;;;;;;-9.73;50.25;101011.84;4900741;29;20082;-91
2023/01/09 09:45:06;;;;;;;2.20;2.00;;;;;;;-9.52;49.51;101020.53;4939285;29;20135;-94
2023/01/09 09:47:44;;;;;;;1.92;1.83;;;;;;;-9.97;48.95;101007.69;4934261;29;20528;-93
2023/01/09 09:50:37;;;;;;;2.25;2.05;;;;;;;-10.08;48.86;101010.72;4922635;29;20048;-90
2023/01/09 09:53:21;;;;;;;2.20;2.00;;;;;;;-10.11;48.64;101014.31;4886010;29;20071;-86
2023/01/09 09:55:48;;;;;;;2.00;1.90;;;;;;;-10.22;48.70;101015.69;4886541;29;20052;-89
2023/01/09 09:58:36;;;;;;;2.00;1.90;;;;;;;-9.74;48.71;101020.63;4917685;29;20103;-88
2023/01/09 10:01:05;;;;;;;2.22;2.03;;;;;;;-9.51;48.26;101008.31;4919034;29;20080;-85
2023/01/09 10:03:37;;;;;;;2.00;1.90;;;;;;;-9.80;47.49;101018.25;4563625;29;9999706;-86
2023/01/09 10:06:17;;;;;;;2.20;2.00;;;;;;;-9.97;47.56;101028.59;4951985;28;20429;-88
2023/01/09 10:09:15;;;;;;;1.83;1.73;;;;;;;-10.39;47.80;101042.50;4915162;29;20206;-88
2023/01/09 10:11:52;;;;;;;;;;;;;;;-10.05;48.51;101026.25;4916608;29;20052;-84
2023/01/09 10:14:22;;;;;;;2.00;1.90;;;;;;;-9.67;47.41;101014.22;4899421;29;19953;-85
2023/01/09 10:17:27;;;;;;;2.30;2.10;;;;;;;-9.62;47.41;101027.06;4906135;29;20821;-88
2023/01/09 10:20:05;;;;;;;2.30;2.10;;;;;;;-9.87;47.57;101029.91;4913317;29;20060;-87
2023/01/09 10:22:59;;;;;;;2.30;2.10;;;;;;;-9.35;46.96;101039.84;4916916;29;20075;-85
2023/01/09 10:25:30;;;;;;;2.40;2.20;;;;;;;-9.56;46.70;101031.19;4909436;29;20312;-87
2023/01/09 10:28:19;;;;;;;2.17;2.00;;;;;;;-9.61;46.75;101045.31;4935105;29;20084;-87
2023/01/09 10:30:49;;;;;;;1.80;1.70;;;;;;;-10.02;46.40;101036.59;4915468;29;20044;-84
2023/01/09 10:33:22;;;;;;;2.00;1.90;;;;;;;-9.96;47.08;101040.72;4901433;29;20146;-88
2023/01/09 10:36:02;;;;;;;2.40;2.20;;;;;;;-9.98;47.37;101035.53;4925717;29;20048;-87
2023/01/09 10:38:41;;;;;;;2.30;2.10;;;;;;;-9.34;47.69;101039.81;4927713;29;20503;-85
2023/01/09 10:41:11;;;;;;;2.20;2.00;;;;;;;-8.88;46.83;101037.72;4913336;29;20079;-85
2023/01/09 10:44:01;;;;;;;1.75;1.65;;;;;;;-8.85;46.42;101042.81;4938195;29;20083;-86
2023/01/09 10:46:37;;;;;;;2.42;2.22;;;;;;;-8.72;46.29;101037.84;4911444;29;20052;-85
2023/01/09 10:49:11;;;;;;;2.00;1.90;;;;;;;-8.86;45.83;101030.66;4927875;29;20063;-86
2023/01/09 10:51:51;;;;;;;2.30;2.10;;;;;;;-9.00;45.76;101038.28;4910584;29;20152;-87
2023/01/09 10:54:24;;;;;;;2.00;1.90;;;;;;;-8.87;45.54;101049.88;4936419;29;20057;-86
2023/01/09 10:57:16;;;;;;;2.28;2.08;;;;;;;-8.98;45.15;101044.28;4921900;29;20522;-85
2023/01/09 10:59:43;;;;;;;2.00;1.90;;;;;;;-8.92;45.27;101035.31;4936324;29;20081;-86
2023/01/09 11:02:25;;;;;;;2.03;1.90;;;;;;;-9.17;44.72;101045.09;4885545;29;20063;-85
2023/01/09 11:04:52;;;;;;;2.20;2.00;;;;;;;-9.43;45.16;101042.81;4888150;29;20131;-85
2023/01/09 11:07:26;;;;;;;1.95;1.85;;;;;;;-9.73;45.63;101027.53;4918512;29;20063;-87
2023/01/09 11:09:58;;;;;;;2.00;1.90;;;;;;;-9.36;45.84;101031.16;4918334;29;20083;-86
2023/01/09 11:12:27;;;;;;;2.20;2.00;;;;;;;-9.60;45.56;101039.16;4920404;29;20055;-85
2023/01/09 11:14:55;;;;;;;2.40;2.20;;;;;;;-9.66;45.22;101023.75;4919143;29;20047;-87
2023/01/09 11:17:26;;;;;;;2.00;1.90;;;;;;;-9.81;45.57;101050.53;4902659;29;20146;-86
2023/01/09 11:20:06;;;;;;;2.05;1.95;;;;;;;-9.52;45.52;101035.34;4919779;29;20575;-87
2023/01/09 11:22:47;;;;;;;2.05;1.95;;;;;;;-9.79;45.29;101038.25;4919279;29;20146;-87
2023/01/09 11:25:17;;;;;;;2.00;1.90;;;;;;;-9.67;45.34;101027.28;4919337;29;20430;-87
2023/01/09 11:28:05;;;;;;;1.85;1.75;;;;;;;-9.32;45.45;101034.50;4906928;29;20052;-87
2023/01/09 11:30:37;;;;;;;1.80;1.70;;;;;;;-9.72;45.03;101023.16;4935546;29;20143;-88
2023/01/09 11:33:16;;;;;;;1.80;1.70;;;;;;;-10.08;45.36;101042.06;4900899;29;20138;-88
2023/01/09 11:35:57;;;;;;;2.20;2.00;;;;;;;-10.41;45.97;101036.50;4918681;29;20510;-88
2023/01/09 11:38:25;;;;;;;2.28;2.08;;;;;;;-10.23;46.22;101038.31;4915803;29;20048;-87
2023/01/09 11:40:55;;;;;;;2.20;2.00;;;;;;;-10.54;46.38;101034.34;4918482;29;20138;-89
2023/01/09 11:43:38;;;;;;;2.25;2.05;;;;;;;-10.53;46.62;101029.97;4927210;29;20048;-88
2023/01/09 11:46:08;;;;;;;2.00;1.90;;;;;;;-10.95;46.74;101034.19;4920628;29;20111;-92
2023/01/09 11:48:58;;;;;;;2.20;2.00;;;;;;;-10.82;47.42;101033.75;4915058;29;20080;-88
2023/01/09 11:51:27;;;;;;;2.05;1.90;;;;;;;-10.14;47.00;101032.72;4929358;29;20059;-90
2023/01/09 11:54:03;;;;;;;2.30;2.10;;;;;;;-9.80;46.55;101031.31;4936855;29;20055;-90
2023/01/09 11:56:32;;;;;;;2.15;2.00;;;;;;;-9.95;46.09;101029.34;4916834;29;20052;-89
2023/01/09 11:58:59;;;;;;;2.15;1.98;;;;;;;-9.92;46.27;101037.94;4907769;29;20056;-86